Eyemouth, United Kingdom
Current Conditions -  °F | °C
As of 8:50 AM on Thursday 23 Oct 2014 (Local Time) from EGQM Reporting Station
Clear Clear  
Wind Chill: 55°   Ceiling: Unl
Heat Index: 55°   Visibility: 6mi
Dew Point: 50°   Wind: 22mph
Humidity: 82%   Direction: 240°WSW
Pressure: 29.85"   Gusts: NA
Location:  55.87°N, 2.09°W
Report Text: EGQM 230750Z AUTO 24019KT 9999 NCD 13/10 Q1011
Loading
Personal Weather Stations






























Interactive Weather Map
Tropical Storm Tracking
New forecast layout! Learn more

10-Day Weather Forecast

Advertisements
Track Severe Weather on mobile